createdAt,value
2023-01-09T00:01:42.673Z,4.75
2023-01-09T00:04:14.084Z,4.73
2023-01-09T00:06:43.951Z,4.77
2023-01-09T00:09:12.723Z,4.79
2023-01-09T00:11:41.567Z,4.81
2023-01-09T00:14:11.118Z,4.86
2023-01-09T00:16:40.294Z,4.87
2023-01-09T00:19:09.251Z,4.84
2023-01-09T00:21:40.387Z,4.82
2023-01-09T00:24:09.676Z,4.80
2023-01-09T00:26:38.379Z,4.80
2023-01-09T00:29:12.368Z,4.80
2023-01-09T00:31:41.081Z,4.82
2023-01-09T00:34:11.757Z,4.84
2023-01-09T00:36:42.004Z,4.86
2023-01-09T00:39:10.757Z,4.88
2023-01-09T00:41:42.406Z,4.89
2023-01-09T00:44:16.341Z,4.87
2023-01-09T00:46:49.310Z,4.85
2023-01-09T00:49:20.109Z,4.86
2023-01-09T00:51:50.922Z,4.88
2023-01-09T00:54:22.011Z,4.88
2023-01-09T00:56:51.523Z,4.87
2023-01-09T00:59:20.297Z,4.87
2023-01-09T01:01:49.334Z,4.89
2023-01-09T01:04:27.980Z,4.89
2023-01-09T01:07:08.174Z,4.89
2023-01-09T01:09:37.067Z,4.91
2023-01-09T01:12:07.528Z,4.93
2023-01-09T01:14:37.550Z,4.91
2023-01-09T01:17:06.835Z,4.87
2023-01-09T01:19:36.284Z,4.88
2023-01-09T01:22:06.557Z,4.86
2023-01-09T01:24:35.291Z,4.84
2023-01-09T01:27:04.211Z,4.85
2023-01-09T01:29:32.932Z,4.84
2023-01-09T01:32:01.711Z,4.81
2023-01-09T01:34:30.651Z,4.79
2023-01-09T01:36:59.447Z,4.80
2023-01-09T01:39:29.658Z,4.78
2023-01-09T01:41:58.448Z,4.78
2023-01-09T01:44:55.779Z,4.77
2023-01-09T01:47:29.606Z,4.75
2023-01-09T01:49:58.539Z,4.72
2023-01-09T01:52:27.685Z,4.79
2023-01-09T01:54:58.007Z,4.81
2023-01-09T01:57:27.365Z,4.86
2023-01-09T02:00:00.508Z,4.91
2023-01-09T02:02:33.445Z,4.95
2023-01-09T02:05:06.807Z,4.98
2023-01-09T02:07:35.366Z,5.02
2023-01-09T02:10:06.087Z,5.09
2023-01-09T02:12:34.860Z,5.14
2023-01-09T02:15:07.836Z,5.19
2023-01-09T02:17:59.116Z,5.24
2023-01-09T02:20:43.665Z,5.27
2023-01-09T02:23:40.902Z,5.32
2023-01-09T02:26:36.228Z,5.39
2023-01-09T02:29:29.917Z,5.44
2023-01-09T02:32:06.581Z,5.61
2023-01-09T02:34:47.185Z,5.83
2023-01-09T02:37:27.138Z,5.90
2023-01-09T02:40:06.150Z,6.40
2023-01-09T02:42:37.528Z,7.13
2023-01-09T02:45:07.268Z,7.44
2023-01-09T02:47:39.066Z,7.62
2023-01-09T02:50:12.150Z,7.89
2023-01-09T02:53:07.349Z,8.17
2023-01-09T02:55:51.705Z,8.38
2023-01-09T02:58:33.659Z,8.48
2023-01-09T03:01:14.308Z,8.61
2023-01-09T03:03:50.565Z,8.67
2023-01-09T03:06:24.009Z,8.68
2023-01-09T03:08:56.987Z,8.66
2023-01-09T03:11:29.791Z,8.53
2023-01-09T03:14:08.818Z,8.72
2023-01-09T03:16:39.395Z,8.73
2023-01-09T03:19:15.258Z,8.72
2023-01-09T03:21:46.451Z,8.66
2023-01-09T03:24:15.469Z,8.61
2023-01-09T03:26:44.593Z,8.53
2023-01-09T03:29:13.300Z,8.48
2023-01-09T03:31:42.016Z,8.48
2023-01-09T03:34:12.399Z,8.48
2023-01-09T03:36:42.037Z,8.52
2023-01-09T03:39:10.433Z,8.51
2023-01-09T03:41:39.209Z,8.51
2023-01-09T03:44:08.142Z,8.54
2023-01-09T03:46:36.921Z,8.58
2023-01-09T03:49:05.726Z,8.60
2023-01-09T03:51:35.848Z,8.59
2023-01-09T03:54:04.731Z,8.60
2023-01-09T03:56:33.478Z,8.56
2023-01-09T03:59:02.382Z,8.51
2023-01-09T04:01:31.190Z,8.53
2023-01-09T04:04:00.181Z,8.58
2023-01-09T04:06:28.978Z,8.58
2023-01-09T04:08:59.169Z,8.57
2023-01-09T04:11:28.108Z,8.53
2023-01-09T04:13:56.887Z,8.49
2023-01-09T04:16:25.672Z,8.49
2023-01-09T04:18:54.358Z,8.53
2023-01-09T04:21:23.449Z,8.50
2023-01-09T04:23:52.181Z,8.53
2023-01-09T04:26:22.643Z,8.51
2023-01-09T04:28:51.422Z,8.46
2023-01-09T04:31:20.213Z,8.48
2023-01-09T04:33:49.022Z,8.50
2023-01-09T04:36:17.801Z,8.38
2023-01-09T04:38:46.505Z,8.51
2023-01-09T04:41:35.535Z,8.46
2023-01-09T04:44:05.942Z,8.45
2023-01-09T04:46:34.709Z,8.40
2023-01-09T04:49:03.437Z,8.48
2023-01-09T04:51:32.301Z,8.48
2023-01-09T04:54:00.939Z,8.48
2023-01-09T04:56:29.878Z,8.47
2023-01-09T04:58:58.669Z,8.45
2023-01-09T05:01:28.956Z,8.42
2023-01-09T05:03:58.102Z,8.37
2023-01-09T05:06:26.939Z,8.44
2023-01-09T05:08:56.870Z,8.43
2023-01-09T05:11:26.977Z,8.45
2023-01-09T05:13:55.754Z,8.46
2023-01-09T05:16:24.564Z,8.49
2023-01-09T05:18:57.441Z,8.46
2023-01-09T05:21:26.379Z,8.42
2023-01-09T05:23:55.372Z,8.40
2023-01-09T05:26:25.265Z,8.42
2023-01-09T05:28:53.955Z,8.45
2023-01-09T05:31:23.033Z,8.49
2023-01-09T05:33:51.953Z,8.54
2023-01-09T05:36:22.174Z,8.58
2023-01-09T05:38:50.967Z,8.60
2023-01-09T05:41:19.748Z,8.56
2023-01-09T05:43:49.889Z,8.55
2023-01-09T05:46:18.776Z,8.53
2023-01-09T05:48:47.619Z,8.51
2023-01-09T05:51:16.535Z,8.49
2023-01-09T05:53:46.702Z,8.48
2023-01-09T05:56:15.623Z,8.57
2023-01-09T05:58:44.390Z,8.59
2023-01-09T06:01:13.353Z,8.57
2023-01-09T06:03:42.212Z,8.55
2023-01-09T06:06:11.021Z,8.55
2023-01-09T06:08:39.856Z,8.49
2023-01-09T06:11:10.515Z,8.54
2023-01-09T06:13:39.331Z,8.60
2023-01-09T06:16:09.187Z,8.59
2023-01-09T06:18:38.175Z,8.50
2023-01-09T06:21:07.267Z,8.55
2023-01-09T06:23:36.049Z,8.53
2023-01-09T06:26:04.956Z,8.51
2023-01-09T06:28:35.246Z,8.51
2023-01-09T06:31:04.238Z,8.54
2023-01-09T06:33:33.395Z,8.57
2023-01-09T06:36:02.230Z,8.58
2023-01-09T06:38:31.099Z,8.58
2023-01-09T06:40:59.949Z,8.52
2023-01-09T06:43:28.899Z,8.50
2023-01-09T06:45:59.597Z,8.49
2023-01-09T06:48:28.834Z,8.45
2023-01-09T06:50:57.747Z,8.39
2023-01-09T06:53:26.573Z,8.44
2023-01-09T06:55:55.291Z,8.48
2023-01-09T06:58:24.080Z,8.54
2023-01-09T07:00:54.097Z,8.53
2023-01-09T07:03:24.446Z,8.57
2023-01-09T07:05:53.492Z,8.58
2023-01-09T07:08:22.201Z,8.57
2023-01-09T07:10:50.980Z,8.58
2023-01-09T07:13:19.670Z,8.57
2023-01-09T07:15:50.617Z,8.56
2023-01-09T07:18:19.437Z,8.57
2023-01-09T07:20:49.821Z,8.57
2023-01-09T07:23:18.987Z,8.55
2023-01-09T07:25:48.323Z,8.45
2023-01-09T07:28:17.106Z,8.52
2023-01-09T07:30:45.899Z,8.51
2023-01-09T07:33:14.702Z,8.53
2023-01-09T07:35:43.652Z,8.56
2023-01-09T07:38:14.238Z,8.57
2023-01-09T07:40:43.110Z,8.57
2023-01-09T07:43:11.820Z,8.59
2023-01-09T07:45:40.707Z,8.54
2023-01-09T07:48:09.466Z,8.56
2023-01-09T07:50:38.205Z,8.55
2023-01-09T07:53:06.961Z,8.55
2023-01-09T07:55:37.153Z,8.53
2023-01-09T07:58:05.914Z,8.51
2023-01-09T08:00:35.307Z,8.49
2023-01-09T08:03:04.248Z,8.51
2023-01-09T08:05:32.931Z,8.59
2023-01-09T08:08:02.159Z,8.60
2023-01-09T08:10:30.723Z,8.60
2023-01-09T08:13:00.867Z,8.59
2023-01-09T08:15:29.775Z,8.56
2023-01-09T08:17:58.396Z,8.56
2023-01-09T08:20:27.703Z,8.57
2023-01-09T08:22:57.027Z,8.58
2023-01-09T08:25:25.897Z,8.58
2023-01-09T08:27:54.715Z,8.63
2023-01-09T08:30:24.910Z,8.66
2023-01-09T08:32:55.565Z,8.66
2023-01-09T08:35:24.533Z,8.64
2023-01-09T08:37:53.223Z,8.60
2023-01-09T08:40:21.880Z,8.62
2023-01-09T08:43:00.966Z,8.61
2023-01-09T08:45:41.348Z,8.59
2023-01-09T08:48:10.561Z,8.59
2023-01-09T08:50:39.509Z,8.61
2023-01-09T08:53:08.355Z,8.61
2023-01-09T08:55:37.047Z,8.59
2023-01-09T08:58:05.937Z,8.58
2023-01-09T09:00:36.079Z,8.61
2023-01-09T09:03:05.263Z,8.59
2023-01-09T09:05:34.706Z,8.54
2023-01-09T09:08:04.302Z,8.58
2023-01-09T09:10:32.945Z,8.59
2023-01-09T09:13:01.825Z,8.58
2023-01-09T09:15:30.739Z,8.56
2023-01-09T09:18:03.879Z,8.56
2023-01-09T09:20:35.499Z,8.54
2023-01-09T09:23:04.958Z,8.54
2023-01-09T09:25:33.961Z,8.52
2023-01-09T09:28:02.766Z,8.48
2023-01-09T09:30:31.559Z,8.47
2023-01-09T09:33:04.919Z,8.45
2023-01-09T09:35:34.967Z,8.44
2023-01-09T09:38:06.582Z,8.42
2023-01-09T09:41:08.013Z,8.42
2023-01-09T09:44:09.507Z,8.41
2023-01-09T09:46:45.001Z,8.42
2023-01-09T09:49:21.162Z,8.44
2023-01-09T09:52:01.763Z,8.51
2023-01-09T09:54:35.829Z,8.53
2023-01-09T09:57:07.520Z,8.56
2023-01-09T09:59:39.239Z,8.58
2023-01-09T10:02:25.673Z,8.61
2023-01-09T10:05:02.128Z,8.59
2023-01-09T10:07:38.873Z,8.61
2023-01-09T10:10:16.055Z,8.61
2023-01-09T10:12:53.787Z,8.64
2023-01-09T10:15:32.180Z,8.65
2023-01-09T10:18:14.553Z,8.63
2023-01-09T10:20:58.296Z,8.61
2023-01-09T10:23:58.114Z,8.59
2023-01-09T10:26:31.172Z,8.58
2023-01-09T10:29:25.397Z,8.57
2023-01-09T10:32:05.508Z,8.60
2023-01-09T10:34:49.039Z,8.64
2023-01-09T10:37:23.089Z,8.68
2023-01-09T10:39:56.969Z,8.68
2023-01-09T10:42:33.651Z,8.65
2023-01-09T10:45:08.052Z,8.62
2023-01-09T10:47:39.149Z,8.67
2023-01-09T10:50:21.190Z,8.69
2023-01-09T10:52:54.857Z,8.70
2023-01-09T10:55:41.509Z,8.69
2023-01-09T10:58:13.712Z,8.72
2023-01-09T11:00:43.617Z,8.71
2023-01-09T11:03:14.389Z,8.73
2023-01-09T11:05:43.571Z,8.73
2023-01-09T11:08:25.592Z,8.74
2023-01-09T11:10:56.820Z,8.74
2023-01-09T11:13:29.533Z,8.71
2023-01-09T11:16:04.708Z,8.69
2023-01-09T11:18:34.240Z,8.71
2023-01-09T11:21:16.614Z,8.73
2023-01-09T11:23:46.884Z,8.71
2023-01-09T11:26:25.450Z,8.69
2023-01-09T11:29:09.014Z,8.68
2023-01-09T11:31:38.115Z,8.68
2023-01-09T11:34:08.845Z,8.66
2023-01-09T11:36:37.985Z,8.65
2023-01-09T11:39:21.070Z,8.63
2023-01-09T11:41:55.231Z,8.61
2023-01-09T11:44:25.098Z,8.62
2023-01-09T11:46:53.903Z,8.60
2023-01-09T11:49:25.655Z,8.59
2023-01-09T11:52:16.319Z,8.59
2023-01-09T11:54:51.885Z,8.57
2023-01-09T11:57:23.165Z,8.58
2023-01-09T11:59:53.279Z,8.58
2023-01-09T12:02:43.010Z,8.59
2023-01-09T12:05:23.426Z,8.60
2023-01-09T12:08:06.976Z,8.56
2023-01-09T12:11:05.117Z,8.53
2023-01-09T12:13:51.950Z,8.52
2023-01-09T12:16:33.383Z,8.52
2023-01-09T12:19:17.739Z,8.49
2023-01-09T12:21:52.185Z,8.47
2023-01-09T12:24:50.855Z,8.47
2023-01-09T12:27:30.155Z,8.40
2023-01-09T12:30:12.303Z,8.37
2023-01-09T12:32:54.069Z,8.36
2023-01-09T12:35:35.045Z,8.39
2023-01-09T12:38:35.111Z,8.39
2023-01-09T12:41:20.268Z,8.36
2023-01-09T12:44:03.930Z,8.33
2023-01-09T12:46:39.091Z,8.31
2023-01-09T12:49:28.206Z,8.30
2023-01-09T12:52:05.221Z,8.30
2023-01-09T12:54:44.610Z,8.31
2023-01-09T12:57:23.271Z,8.30
2023-01-09T12:59:57.803Z,8.30
2023-01-09T13:02:32.904Z,8.22
2023-01-09T13:05:11.327Z,8.30
2023-01-09T13:07:45.287Z,8.28
2023-01-09T13:10:23.794Z,8.28
2023-01-09T13:12:54.250Z,8.25
2023-01-09T13:15:31.902Z,8.25
2023-01-09T13:18:07.438Z,8.21
2023-01-09T13:20:43.565Z,8.21
2023-01-09T13:23:23.760Z,8.20
2023-01-09T13:25:57.802Z,8.19
2023-01-09T13:28:32.732Z,8.19
2023-01-09T13:31:26.531Z,8.16
2023-01-09T13:33:58.613Z,8.13
2023-01-09T13:36:30.374Z,8.13
2023-01-09T13:39:01.183Z,8.13
2023-01-09T13:41:41.338Z,8.11
2023-01-09T13:44:24.395Z,8.10
2023-01-09T13:46:58.621Z,8.10
2023-01-09T13:49:49.405Z,8.09
2023-01-09T13:52:37.652Z,8.07
2023-01-09T13:55:26.522Z,8.08
2023-01-09T13:58:16.825Z,8.11
2023-01-09T14:01:02.213Z,8.08
2023-01-09T14:03:36.022Z,8.07
2023-01-09T14:06:16.709Z,8.09
2023-01-09T14:08:48.491Z,8.09
2023-01-09T14:11:27.743Z,8.09
2023-01-09T14:14:18.398Z,8.11
2023-01-09T14:16:47.247Z,8.12
2023-01-09T14:19:32.767Z,8.10
2023-01-09T14:22:02.248Z,8.09
2023-01-09T14:24:34.158Z,8.06
2023-01-09T14:27:03.627Z,8.02
2023-01-09T14:29:45.269Z,8.00
2023-01-09T14:32:37.041Z,8.00
2023-01-09T14:35:17.643Z,7.96
2023-01-09T14:37:56.394Z,7.96
2023-01-09T14:40:25.270Z,7.94
2023-01-09T14:42:56.867Z,7.93
2023-01-09T14:45:27.654Z,7.92
2023-01-09T14:48:00.597Z,7.88
2023-01-09T14:50:35.434Z,7.86
2023-01-09T14:53:12.464Z,7.83
2023-01-09T14:55:51.266Z,7.79
2023-01-09T14:58:26.165Z,7.77
2023-01-09T15:01:02.015Z,7.73
2023-01-09T15:03:36.254Z,7.74
2023-01-09T15:06:08.087Z,7.73
2023-01-09T15:08:38.215Z,7.68
2023-01-09T15:11:07.264Z,7.67
2023-01-09T15:13:38.650Z,7.65
2023-01-09T15:16:16.219Z,7.64
2023-01-09T15:18:45.369Z,7.61
2023-01-09T15:21:21.589Z,7.60
2023-01-09T15:23:50.564Z,7.58
2023-01-09T15:26:27.904Z,7.57
2023-01-09T15:29:03.397Z,7.56
2023-01-09T15:31:32.710Z,7.55
2023-01-09T15:34:05.349Z,7.54
2023-01-09T15:36:39.986Z,7.49
2023-01-09T15:39:08.997Z,7.48
2023-01-09T15:41:47.797Z,7.49
2023-01-09T15:44:20.106Z,7.48
2023-01-09T15:46:52.054Z,7.46
2023-01-09T15:49:21.457Z,7.42
2023-01-09T15:51:52.390Z,7.41
2023-01-09T15:54:28.815Z,7.39
2023-01-09T15:57:34.504Z,7.39
2023-01-09T16:00:24.235Z,7.35
2023-01-09T16:03:02.576Z,7.33
2023-01-09T16:05:33.576Z,7.28
2023-01-09T16:08:04.441Z,7.27
2023-01-09T16:10:37.113Z,7.24
2023-01-09T16:13:06.726Z,7.22
2023-01-09T16:15:36.899Z,7.20
2023-01-09T16:18:19.785Z,7.17
2023-01-09T16:20:49.471Z,7.14
2023-01-09T16:23:25.346Z,7.12
2023-01-09T16:26:05.190Z,7.09
2023-01-09T16:28:34.436Z,7.07
2023-01-09T16:31:08.592Z,7.08
2023-01-09T16:33:44.975Z,7.07
2023-01-09T16:36:17.275Z,7.05
2023-01-09T16:38:49.323Z,7.02
2023-01-09T16:41:29.932Z,7.01
2023-01-09T16:43:59.128Z,7.04
2023-01-09T16:46:28.474Z,7.03
2023-01-09T16:48:57.278Z,7.03
2023-01-09T16:51:26.146Z,6.99
2023-01-09T16:53:56.674Z,7.01
2023-01-09T16:56:28.127Z,6.99
2023-01-09T16:58:57.693Z,6.99
2023-01-09T17:01:27.114Z,6.96
2023-01-09T17:03:56.271Z,6.96
2023-01-09T17:06:28.133Z,6.93
2023-01-09T17:08:59.003Z,6.94
2023-01-09T17:11:32.257Z,6.90
2023-01-09T17:14:03.146Z,6.88
2023-01-09T17:16:32.309Z,6.87
2023-01-09T17:19:01.184Z,6.83
2023-01-09T17:21:31.287Z,6.88
2023-01-09T17:24:11.380Z,6.88
2023-01-09T17:26:52.624Z,6.89
2023-01-09T17:29:21.558Z,6.88
2023-01-09T17:31:50.390Z,6.88
2023-01-09T17:34:19.707Z,6.88
2023-01-09T17:36:48.667Z,6.87
2023-01-09T17:39:19.276Z,6.87
2023-01-09T17:41:49.003Z,6.86
2023-01-09T17:44:17.781Z,6.86
2023-01-09T17:46:46.655Z,6.87
2023-01-09T17:49:19.052Z,6.82
2023-01-09T17:51:48.151Z,6.77
2023-01-09T17:54:20.992Z,6.77
2023-01-09T17:56:52.513Z,6.78
2023-01-09T17:59:21.300Z,6.78
2023-01-09T18:01:50.101Z,6.81
2023-01-09T18:04:18.999Z,6.78
2023-01-09T18:06:49.589Z,6.77
2023-01-09T18:09:19.824Z,6.77
2023-01-09T18:11:49.005Z,6.75
2023-01-09T18:14:20.309Z,6.77
2023-01-09T18:16:49.330Z,6.77
2023-01-09T18:19:18.119Z,6.78
2023-01-09T18:21:47.650Z,6.78
2023-01-09T18:24:16.790Z,6.78
2023-01-09T18:26:46.926Z,6.80
2023-01-09T18:29:15.697Z,6.81
2023-01-09T18:31:44.517Z,6.81
2023-01-09T18:34:13.353Z,6.79
2023-01-09T18:36:42.136Z,6.82
2023-01-09T18:39:13.306Z,6.79
2023-01-09T18:41:42.903Z,6.77
2023-01-09T18:44:12.850Z,6.77
2023-01-09T18:46:42.295Z,6.79
2023-01-09T18:49:11.410Z,6.76
2023-01-09T18:51:40.364Z,6.82
2023-01-09T18:54:09.366Z,6.80
2023-01-09T18:56:38.103Z,6.78
2023-01-09T18:59:07.299Z,6.77
2023-01-09T19:01:37.683Z,6.80
2023-01-09T19:04:06.630Z,6.83
2023-01-09T19:06:37.053Z,6.81
2023-01-09T19:09:06.781Z,6.78
2023-01-09T19:11:35.198Z,6.74
2023-01-09T19:14:04.077Z,6.71
2023-01-09T19:16:33.366Z,6.69
2023-01-09T19:19:03.672Z,6.69
2023-01-09T19:21:32.946Z,6.72
2023-01-09T19:24:01.901Z,6.73
2023-01-09T19:26:32.490Z,6.73
2023-01-09T19:29:01.541Z,6.73
2023-01-09T19:31:30.563Z,6.74
2023-01-09T19:33:59.725Z,6.70
2023-01-09T19:36:30.286Z,6.68
2023-01-09T19:38:59.741Z,6.67
2023-01-09T19:41:29.837Z,6.68
2023-01-09T19:44:00.361Z,6.70
2023-01-09T19:46:30.558Z,6.68
2023-01-09T19:48:59.280Z,6.67
2023-01-09T19:51:29.445Z,6.67
2023-01-09T19:56:35.740Z,6.69
2023-01-09T19:59:06.148Z,6.67
2023-01-09T20:01:36.965Z,6.71
2023-01-09T20:04:13.894Z,6.71
2023-01-09T20:06:47.247Z,6.71
2023-01-09T20:09:17.921Z,6.68
2023-01-09T20:11:46.796Z,6.65
2023-01-09T20:14:18.036Z,6.65
2023-01-09T20:16:48.776Z,6.65
2023-01-09T20:19:18.269Z,6.66
2023-01-09T20:21:49.456Z,6.67
2023-01-09T20:24:18.313Z,6.67
2023-01-09T20:26:47.559Z,6.66
2023-01-09T20:29:17.184Z,6.67
2023-01-09T20:31:45.703Z,6.67
2023-01-09T20:34:16.764Z,6.65
2023-01-09T20:36:46.518Z,6.64
2023-01-09T20:39:16.792Z,6.66
2023-01-09T20:41:45.569Z,6.65
2023-01-09T20:44:16.221Z,6.68
2023-01-09T20:46:48.437Z,6.69
2023-01-09T20:49:19.639Z,6.68
2023-01-09T20:51:49.807Z,6.69
2023-01-09T20:54:22.566Z,6.72
2023-01-09T20:56:51.916Z,6.74
2023-01-09T20:59:22.439Z,6.75
2023-01-09T21:01:52.430Z,6.75
2023-01-09T21:04:21.250Z,6.77
2023-01-09T21:06:50.569Z,6.71
2023-01-09T21:09:21.358Z,6.78
2023-01-09T21:11:50.162Z,6.81
2023-01-09T21:14:18.942Z,6.80
2023-01-09T21:16:54.507Z,6.80
2023-01-09T21:19:24.334Z,6.81
2023-01-09T21:21:53.600Z,6.81
2023-01-09T21:24:23.829Z,6.81
2023-01-09T21:26:53.052Z,6.83
2023-01-09T21:29:21.859Z,6.82
2023-01-09T21:31:50.627Z,6.83
2023-01-09T21:34:20.934Z,6.83
2023-01-09T21:36:49.928Z,6.83
2023-01-09T21:39:20.425Z,6.83
2023-01-09T21:42:00.377Z,6.83
2023-01-09T21:44:39.500Z,6.82
2023-01-09T21:47:08.416Z,6.82
2023-01-09T21:49:41.277Z,6.83
2023-01-09T21:52:10.967Z,6.81
2023-01-09T21:54:39.909Z,6.83
2023-01-09T21:57:10.630Z,6.84
2023-01-09T21:59:39.265Z,6.82
2023-01-09T22:02:08.309Z,6.83
2023-01-09T22:04:37.123Z,6.85
2023-01-09T22:07:06.189Z,6.85
2023-01-09T22:09:35.014Z,6.86
2023-01-09T22:12:03.880Z,6.86
2023-01-09T22:14:34.054Z,6.86
2023-01-09T22:17:02.781Z,6.87
2023-01-09T22:19:31.596Z,6.85
2023-01-09T22:22:02.911Z,6.83
2023-01-09T22:24:31.740Z,6.84
2023-01-09T22:27:00.487Z,6.83
2023-01-09T22:29:29.418Z,6.83
2023-01-09T22:31:59.597Z,6.84
2023-01-09T22:34:28.503Z,6.83
2023-01-09T22:36:57.166Z,6.83
2023-01-09T22:39:26.478Z,6.83
2023-01-09T22:41:55.708Z,6.80
2023-01-09T22:44:24.918Z,6.80
2023-01-09T22:46:53.553Z,6.73
2023-01-09T22:49:25.087Z,6.82
2023-01-09T22:51:55.219Z,6.83
2023-01-09T22:54:23.819Z,6.81
2023-01-09T22:56:52.826Z,6.80
2023-01-09T22:59:21.522Z,6.81
2023-01-09T23:01:50.446Z,6.81
2023-01-09T23:04:19.170Z,6.83
2023-01-09T23:06:49.428Z,6.80
2023-01-09T23:09:18.367Z,6.80
2023-01-09T23:12:04.013Z,6.79
2023-01-09T23:14:44.120Z,6.75
2023-01-09T23:17:23.100Z,6.77
2023-01-09T23:20:01.785Z,6.75
2023-01-09T23:22:42.672Z,6.75
2023-01-09T23:25:22.554Z,6.73
2023-01-09T23:28:02.270Z,6.73
2023-01-09T23:30:42.013Z,6.72
2023-01-09T23:33:21.624Z,6.71
2023-01-09T23:36:01.330Z,6.69
2023-01-09T23:38:42.456Z,6.71
2023-01-09T23:41:42.445Z,6.69
2023-01-09T23:44:21.425Z,6.72
2023-01-09T23:47:01.191Z,6.72
2023-01-09T23:49:42.340Z,6.71
2023-01-09T23:52:21.110Z,6.69
2023-01-09T23:55:02.405Z,6.69
2023-01-09T23:57:42.082Z,6.69
